Terminal Aerodrome Forecast
Issued by NWS

Home | Current Version | Previous Version | Text Only | Print | Product List | Glossary On
Versions: 1 2 3 4 5 6 7 8 9 10 11 12 13 14 15 16
000
FTUS43 KMPX 270500
TAFAXN
TAF
KAXN 270520Z 2706/2806 30012KT P6SM SCT040 BKN090
     FM270900 30013G20KT P6SM BKN035 OVC060
     FM271200 32014G22KT P6SM VCSH BKN020 OVC030
     FM271600 34015G22KT P6SM -SHRA SCT020 BKN035
     FM272200 35014KT P6SM VCSH BKN040=

USA.gov is the U.S. government's official web portal to all federal, state and local government web resources and services.